New Vienna, Ohio
Current Conditions -  °F | °C
As of 6:54 PM on Saturday 25 Oct 2014 (Local Time) from KILN Reporting Station
Clear Clear  
Wind Chill: 65°   Ceiling: Unl
Heat Index: 65°   Visibility: 10mi
Dew Point: 52°   Wind: 9mph
Humidity: 63%   Direction: 240°WSW
Pressure: 29.89"   Gusts: NA
Location:  39.32°N, 83.69°W
Report Text: KILN 252254Z AUTO 24008KT 10SM CLR 18/11 A2989 RMK AO2 SLP128 T01830111
Loading
Personal Weather Stations






























Interactive Weather Map
Tropical Storm Tracking
New forecast layout! Learn more

10-Day Weather Forecast

Advertisements
Track Severe Weather on mobile